| time (UTC) | temp F | wind direction | speed knots | gust knots | rain 1hr in | rain 24hr in | rain mn in | humidity % | barometer mb |
| 20260503213019 | 63 | 184 | 6.1 | 13.0 | 0.00 | 0.11 | 0.11 | 52 | 1008.3 |
| 20260503211515 | 64 | 202 | 6.1 | 17.4 | 0.00 | 0.11 | 0.11 | 51 | 1008.7 |
| 20260503210011 | 63 | 186 | 7.0 | 24.3 | 0.00 | 0.11 | 0.11 | 52 | 1008.9 |
| 20260503204520 | 63 | 184 | 8.7 | 20.0 | 0.00 | 0.11 | 0.11 | 52 | 1009.0 |
| 20260503203018 | 62 | 225 | 7.0 | 15.6 | 0.01 | 0.11 | 0.11 | 52 | 1009.1 |
| 20260503201520 | 63 | 196 | 7.8 | 18.2 | 0.01 | 0.11 | 0.11 | 53 | 1009.1 |
| 20260503200021 | 63 | 161 | 9.6 | 17.4 | 0.01 | 0.11 | 0.11 | 53 | 1009.3 |
| 20260503194518 | 62 | 202 | 7.8 | 15.6 | 0.01 | 0.11 | 0.11 | 57 | 1009.7 |
| 20260503193036 | 59 | 148 | 7.0 | 11.3 | 0.00 | 0.10 | 0.10 | 68 | 1010.1 |
| 20260503191518 | 57 | 134 | 6.1 | 12.2 | 0.01 | 0.10 | 0.10 | 70 | 1010.3 |
| 20260503190020 | 54 | 128 | 2.6 | 10.4 | 0.04 | 0.10 | 0.10 | 78 | 1010.8 |
| 20260503184525 | 51 | 111 | 4.3 | 8.7 | 0.05 | 0.10 | 0.10 | 84 | 1011.1 |
| 20260503183018 | 49 | 146 | 3.5 | 7.8 | 0.06 | 0.10 | 0.10 | 84 | 1011.4 |
| 20260503181519 | 49 | 180 | 4.3 | 10.4 | 0.05 | 0.09 | 0.09 | 82 | 1012.7 |
| 20260503180021 | 50 | 174 | 2.6 | 8.7 | 0.03 | 0.06 | 0.06 | 79 | 1013.7 |
| 20260503174528 | 50 | 200 | 4.3 | 13.0 | 0.04 | 0.05 | 0.05 | 81 | 1013.7 |
| 20260503173026 | 49 | 194 | 1.7 | 5.2 | 0.04 | 0.04 | 0.04 | 82 | 1013.8 |
| 20260503171523 | 49 | 198 | 3.5 | 7.8 | 0.04 | 0.04 | 0.04 | 81 | 1014.2 |
| 20260503081514 | 43 | 186 | 0.0 | 4.3 | 0.00 | 0.00 | 0.00 | 66 | 1015.4 |
| 20260503071533 | 44 | 186 | 1.7 | 4.3 | 0.00 | 0.00 | 0.00 | 65 | 1015.6 |
| 20260503054517 | 45 | 186 | 0.9 | 6.1 | 0.00 | 0.00 | 0.00 | 65 | 1016.3 |
| 20260503053022 | 45 | 188 | 0.9 | 5.2 | 0.00 | 0.00 | 0.00 | 65 | 1016.4 |
| 20260503051527 | 45 | 186 | 1.7 | 4.3 | 0.00 | 0.00 | 0.00 | 65 | 1016.5 |
| 20260503050017 | 45 | 192 | 0.9 | 4.3 | 0.00 | 0.00 | 0.00 | 66 | 1016.6 |
| 20260503044520 | 45 | 200 | 0.9 | 5.2 | 0.00 | 0.00 | 0.00 | 66 | 1016.6 |
| 20260503043017 | 45 | 195 | 0.0 | 2.6 | 0.00 | 0.00 | 0.00 | 66 | 1016.7 |
| 20260503041522 | 45 | 194 | 0.0 | 3.5 | 0.00 | 0.00 | 0.00 | 66 | 1016.7 |
| 20260503040027 | 45 | 199 | 0.0 | 2.6 | 0.00 | 0.00 | 0.00 | 65 | 1016.8 |
| 20260503034515 | 45 | 238 | 0.0 | 2.6 | 0.00 | 0.00 | 0.00 | 66 | 1016.7 |
| 20260503033017 | 45 | 242 | 0.0 | 1.7 | 0.00 | 0.00 | 0.00 | 66 | 1016.8 |
| 20260503031520 | 45 | 242 | 0.0 | 0.9 | 0.00 | 0.00 | 0.00 | 65 | 1017.1 |
| 20260503030022 | 46 | 242 | 0.0 | 1.7 | 0.00 | 0.00 | 0.00 | 64 | 1017.1 |
| 20260503024526 | 46 | 242 | 0.0 | 0.9 | 0.00 | 0.00 | 0.00 | 64 | 1017.2 |
| 20260503023026 | 47 | 242 | 0.0 | 1.7 | 0.00 | 0.00 | 0.00 | 62 | 1017.1 |
| 20260503021513 | 47 | 243 | 0.0 | 1.7 | 0.00 | 0.00 | 0.00 | 60 | 1017.2 |
| 20260503020020 | 48 | 244 | 0.0 | 0.9 | 0.00 | 0.00 | 0.00 | 58 | 1017.1 |
| 20260503014522 | 48 | 244 | 0.0 | 2.6 | 0.00 | 0.00 | 0.00 | 57 | 1017.0 |
| 20260503013031 | 49 | 266 | 0.0 | 0.9 | 0.00 | 0.00 | 0.00 | 56 | 1016.7 |
| 20260503011535 | 50 | 267 | 0.0 | 0.0 | 0.00 | 0.00 | 0.00 | 55 | 1016.7 |
| 20260503010016 | 51 | 267 | 0.0 | 0.9 | 0.00 | 0.00 | 0.00 | 53 | 1016.7 |
| 20260503004520 | 52 | 267 | 0.0 | 1.7 | 0.00 | 0.00 | 0.00 | 49 | 1016.8 |
| 20260503003023 | 53 | 267 | 0.0 | 5.2 | 0.00 | 0.00 | 0.00 | 48 | 1016.8 |
| 20260503001527 | 54 | 269 | 2.6 | 8.7 | 0.00 | 0.00 | 0.00 | 45 | 1016.8 |
| 20260503000028 | 55 | 257 | 2.6 | 7.0 | 0.00 | 0.00 | 0.00 | 43 | 1016.7 |
| 20260502234518 | 55 | 204 | 0.0 | 4.3 | 0.00 | 0.00 | 0.00 | 43 | 1017.0 |
| 20260502233021 | 54 | 300 | 0.9 | 4.3 | 0.00 | 0.00 | 0.00 | 45 | 1017.1 |
| 20260502231523 | 54 | 265 | 0.9 | 5.2 | 0.00 | 0.00 | 0.00 | 45 | 1017.2 |
| 20260502230028 | 55 | 311 | 2.6 | 7.8 | 0.00 | 0.00 | 0.00 | 43 | 1017.3 |
| 20260502224529 | 55 | 325 | 1.7 | 6.1 | 0.00 | 0.00 | 0.00 | 44 | 1017.3 |
| 20260502223019 | 55 | 257 | 1.7 | 6.1 | 0.00 | 0.00 | 0.00 | 44 | 1017.3 |
| 20260502221523 | 56 | 317 | 1.7 | 7.0 | 0.00 | 0.00 | 0.00 | 41 | 1017.3 |
| 20260502220028 | 55 | 261 | 0.9 | 3.5 | 0.00 | 0.00 | 0.00 | 45 | 1017.3 |
| 20260502214512 | 56 | 340 | 2.6 | 7.8 | 0.00 | 0.00 | 0.00 | 42 | 1017.4 |